createdAt,value
2018-12-04T00:00:40.262Z,2.27
2018-12-04T00:03:08.416Z,2.20
2018-12-04T00:05:36.596Z,1.37
2018-12-04T00:08:04.745Z,1.53
2018-12-04T00:10:32.933Z,3.43
2018-12-04T00:13:01.081Z,2.50
2018-12-04T00:15:29.273Z,3.43
2018-12-04T00:17:57.424Z,1.73
2018-12-04T00:20:25.616Z,3.60
2018-12-04T00:22:53.768Z,1.50
2018-12-04T00:25:21.926Z,3.43
2018-12-04T00:27:50.089Z,3.90
2018-12-04T00:30:18.249Z,1.63
2018-12-04T00:32:46.615Z,2.60
2018-12-04T00:35:14.876Z,1.70
2018-12-04T00:37:43.066Z,2.60
2018-12-04T00:40:11.218Z,3.63
2018-12-04T00:42:39.410Z,1.80
2018-12-04T00:45:08.375Z,2.00
2018-12-04T00:47:36.587Z,3.07
2018-12-04T00:50:05.264Z,2.50
2018-12-04T00:52:33.465Z,2.17
2018-12-04T00:55:01.636Z,1.87
2018-12-04T00:57:30.111Z,3.07
2018-12-04T00:59:58.279Z,4.33
2018-12-04T01:02:26.446Z,8.23
2018-12-04T01:04:54.623Z,1.03
2018-12-04T01:07:22.774Z,1.53
2018-12-04T01:09:50.952Z,3.00
2018-12-04T01:12:19.100Z,3.00
2018-12-04T01:14:47.293Z,2.20
2018-12-04T01:17:15.461Z,2.57
2018-12-04T01:19:43.631Z,1.10
2018-12-04T01:22:11.785Z,1.63
2018-12-04T01:24:39.977Z,1.37
2018-12-04T01:27:08.125Z,3.50
2018-12-04T01:29:36.273Z,2.00
2018-12-04T01:32:04.449Z,2.20
2018-12-04T01:34:32.600Z,1.10
2018-12-04T01:37:00.796Z,1.20
2018-12-04T01:39:28.957Z,3.17
2018-12-04T01:41:57.136Z,2.97
2018-12-04T01:44:25.296Z,0.80
2018-12-04T01:46:53.464Z,1.63
2018-12-04T01:49:21.627Z,3.67
2018-12-04T01:51:50.073Z,1.37
2018-12-04T01:54:18.213Z,3.47
2018-12-04T01:56:46.360Z,2.17
2018-12-04T01:59:14.544Z,1.23
2018-12-04T02:01:42.700Z,2.30
2018-12-04T02:04:10.894Z,1.10
2018-12-04T02:06:39.040Z,0.90
2018-12-04T02:09:07.333Z,1.40
2018-12-04T02:11:35.485Z,1.33
2018-12-04T02:14:03.678Z,1.67
2018-12-04T02:16:31.843Z,1.73
2018-12-04T02:19:00.060Z,1.17
2018-12-04T02:21:28.536Z,3.70
2018-12-04T02:23:56.975Z,1.57
2018-12-04T02:26:25.367Z,1.67
2018-12-04T02:28:53.545Z,1.73
2018-12-04T02:31:21.958Z,1.00
2018-12-04T02:33:50.439Z,1.63
2018-12-04T02:36:18.922Z,1.37
2018-12-04T02:38:47.401Z,1.73
2018-12-04T02:41:15.884Z,2.90
2018-12-04T02:43:44.340Z,0.90
2018-12-04T02:46:12.541Z,1.13
2018-12-04T02:48:40.820Z,3.13
2018-12-04T02:51:09.297Z,3.10
2018-12-04T02:53:37.499Z,3.97
2018-12-04T02:56:05.653Z,6.77
2018-12-04T02:58:33.847Z,2.70
2018-12-04T03:01:02.009Z,4.20
2018-12-04T03:03:30.221Z,3.10
2018-12-04T03:05:58.374Z,2.67
2018-12-04T03:08:26.560Z,4.47
2018-12-04T03:10:54.714Z,3.43
2018-12-04T03:13:22.906Z,2.60
2018-12-04T03:15:51.064Z,2.17
2018-12-04T03:18:19.224Z,1.47
2018-12-04T03:20:47.405Z,3.60
2018-12-04T03:23:15.574Z,2.93
2018-12-04T03:25:43.777Z,4.97
2018-12-04T03:28:11.946Z,4.83
2018-12-04T03:30:40.157Z,5.07
2018-12-04T03:33:08.345Z,1.63
2018-12-04T03:35:36.540Z,5.20
2018-12-04T03:38:04.713Z,3.57
2018-12-04T03:40:32.882Z,5.73
2018-12-04T03:43:01.066Z,2.73
2018-12-04T03:45:29.224Z,3.90
2018-12-04T03:47:57.421Z,6.70
2018-12-04T03:50:25.582Z,3.30
2018-12-04T03:52:53.757Z,2.40
2018-12-04T03:55:21.933Z,4.90
2018-12-04T03:57:50.132Z,2.33
2018-12-04T04:00:18.317Z,3.80
2018-12-04T04:02:46.465Z,1.73
2018-12-04T04:05:14.688Z,3.27
2018-12-04T04:07:42.857Z,2.10
2018-12-04T04:10:11.056Z,3.77
2018-12-04T04:12:39.222Z,4.10
2018-12-04T04:15:07.420Z,3.53
2018-12-04T04:17:35.576Z,4.87
2018-12-04T04:20:03.829Z,4.27
2018-12-04T04:22:32.020Z,4.07
2018-12-04T04:25:00.207Z,2.50
2018-12-04T04:27:28.393Z,4.87
2018-12-04T04:29:56.562Z,4.03
2018-12-04T04:32:24.758Z,5.10
2018-12-04T04:34:52.908Z,3.20
2018-12-04T04:37:21.100Z,5.60
2018-12-04T04:39:49.285Z,4.53
2018-12-04T04:42:17.479Z,2.80
2018-12-04T04:45:13.408Z,2.73
2018-12-04T04:47:40.981Z,4.50
2018-12-04T04:50:09.530Z,4.93
2018-12-04T04:52:37.102Z,3.87
2018-12-04T04:55:04.745Z,2.20
2018-12-04T04:57:32.337Z,5.60
2018-12-04T05:00:00.071Z,1.20
2018-12-04T05:02:27.616Z,1.50
2018-12-04T05:04:55.261Z,4.83
2018-12-04T05:07:22.816Z,5.37
2018-12-04T05:09:50.394Z,6.27
2018-12-04T05:12:17.989Z,5.97
2018-12-04T05:14:45.569Z,3.57
2018-12-04T05:17:13.303Z,4.53
2018-12-04T05:19:40.884Z,2.83
2018-12-04T05:22:08.730Z,4.30
2018-12-04T05:24:36.697Z,7.80
2018-12-04T05:27:04.645Z,2.03
2018-12-04T05:29:35.957Z,4.10
2018-12-04T05:32:04.749Z,6.83
2018-12-04T05:34:32.302Z,2.90
2018-12-04T05:36:59.885Z,4.20
2018-12-04T05:42:12.455Z,4.90
2018-12-04T05:44:40.008Z,3.53
2018-12-04T05:47:07.582Z,5.60
2018-12-04T05:49:35.336Z,2.70
2018-12-04T05:52:03.304Z,2.70
2018-12-04T05:54:30.853Z,3.83
2018-12-04T05:56:58.424Z,2.83
2018-12-04T05:59:25.973Z,7.37
2018-12-04T06:01:53.553Z,5.70
2018-12-04T06:04:21.717Z,5.33
2018-12-04T06:06:49.264Z,2.63
2018-12-04T06:09:16.904Z,5.63
2018-12-04T06:11:44.453Z,5.77
2018-12-04T06:14:12.029Z,6.37
2018-12-04T06:16:39.577Z,2.73
2018-12-04T06:19:07.144Z,3.53
2018-12-04T06:21:34.713Z,2.60
2018-12-04T06:24:02.292Z,5.80
2018-12-04T06:26:29.842Z,3.20
2018-12-04T06:28:57.428Z,3.30
2018-12-04T06:31:24.974Z,2.70
2018-12-04T06:33:52.516Z,3.33
2018-12-04T06:36:20.156Z,4.63
2018-12-04T06:38:47.700Z,2.60
2018-12-04T06:41:15.272Z,2.33
2018-12-04T06:43:42.830Z,2.53
2018-12-04T06:46:10.396Z,3.23
2018-12-04T06:48:37.945Z,5.63
2018-12-04T06:51:05.508Z,5.37
2018-12-04T06:53:33.056Z,3.60
2018-12-04T06:56:00.642Z,3.27
2018-12-04T06:58:28.192Z,2.00
2018-12-04T07:00:55.765Z,2.30
2018-12-04T07:03:23.323Z,1.70
2018-12-04T07:05:52.873Z,2.23
2018-12-04T07:08:20.413Z,2.77
2018-12-04T07:10:47.961Z,1.70
2018-12-04T07:13:15.528Z,1.80
2018-12-04T07:15:43.073Z,0.80
2018-12-04T07:18:10.650Z,3.47
2018-12-04T07:20:38.193Z,1.10
2018-12-04T07:23:05.757Z,1.47
2018-12-04T07:25:33.301Z,1.20
2018-12-04T07:28:00.840Z,1.10
2018-12-04T07:30:28.405Z,6.10
2018-12-04T07:32:55.949Z,3.33
2018-12-04T07:35:23.516Z,3.23
2018-12-04T07:37:51.068Z,2.60
2018-12-04T07:40:18.632Z,2.07
2018-12-04T07:42:46.180Z,1.37
2018-12-04T07:45:13.740Z,3.83
2018-12-04T07:47:41.285Z,2.10
2018-12-04T07:50:08.924Z,2.20
2018-12-04T07:52:36.472Z,1.93
2018-12-04T07:55:04.189Z,1.67
2018-12-04T07:57:31.760Z,4.87
2018-12-04T07:59:59.317Z,7.37
2018-12-04T08:02:26.884Z,2.13
2018-12-04T08:04:54.438Z,1.40
2018-12-04T08:07:22.009Z,1.60
2018-12-04T08:09:49.564Z,2.03
2018-12-04T08:12:17.200Z,1.30
2018-12-04T08:14:44.753Z,2.30
2018-12-04T08:17:12.328Z,1.40
2018-12-04T08:19:39.869Z,4.20
2018-12-04T08:22:07.448Z,2.13
2018-12-04T08:24:34.993Z,1.50
2018-12-04T08:27:02.552Z,2.70
2018-12-04T08:29:30.133Z,2.80
2018-12-04T08:31:57.680Z,1.80
2018-12-04T08:34:25.258Z,1.43
2018-12-04T08:36:52.819Z,2.80
2018-12-04T08:39:20.397Z,3.13
2018-12-04T08:41:47.936Z,6.80
2018-12-04T08:44:15.501Z,2.00
2018-12-04T08:46:43.121Z,3.20
2018-12-04T08:49:10.694Z,1.53
2018-12-04T08:51:38.246Z,2.60
2018-12-04T08:54:05.829Z,1.77
2018-12-04T08:56:33.378Z,9.13
2018-12-04T08:59:00.932Z,3.50
2018-12-04T09:01:28.500Z,1.30
2018-12-04T09:03:59.175Z,2.20
2018-12-04T09:06:27.606Z,1.97
2018-12-04T09:08:55.227Z,2.13
2018-12-04T09:11:22.848Z,4.17
2018-12-04T09:13:50.401Z,2.17
2018-12-04T09:16:23.294Z,5.53
2018-12-04T09:18:47.569Z,2.30
2018-12-04T09:21:15.206Z,3.93
2018-12-04T09:23:42.793Z,3.90
2018-12-04T09:26:10.453Z,2.30
2018-12-04T09:28:38.021Z,1.90
2018-12-04T09:31:05.693Z,1.73
2018-12-04T09:33:33.269Z,3.23
2018-12-04T09:36:00.937Z,3.60
2018-12-04T09:38:28.508Z,1.67
2018-12-04T09:40:56.073Z,5.37
2018-12-04T09:43:23.641Z,2.07
2018-12-04T09:45:51.196Z,3.83
2018-12-04T09:48:19.975Z,3.80
2018-12-04T09:50:48.053Z,2.00
2018-12-04T09:53:15.633Z,1.83
2018-12-04T09:55:43.206Z,4.03
2018-12-04T09:58:10.757Z,2.43
2018-12-04T10:00:38.333Z,2.07
2018-12-04T10:03:05.875Z,1.97
2018-12-04T10:05:33.455Z,2.30
2018-12-04T10:08:01.006Z,4.17
2018-12-04T10:10:28.590Z,4.03
2018-12-04T10:12:56.148Z,1.97
2018-12-04T10:15:23.809Z,4.13
2018-12-04T10:17:51.385Z,4.57
2018-12-04T10:20:18.933Z,2.97
2018-12-04T10:22:46.505Z,4.23
2018-12-04T10:25:14.057Z,3.20
2018-12-04T10:27:41.616Z,3.43
2018-12-04T10:30:09.228Z,2.97
2018-12-04T10:32:36.808Z,4.27
2018-12-04T10:35:04.685Z,2.07
2018-12-04T10:37:32.272Z,1.90
2018-12-04T10:39:59.846Z,2.50
2018-12-04T10:42:27.397Z,10.20
2018-12-04T10:44:54.973Z,3.77
2018-12-04T10:47:22.515Z,3.13
2018-12-04T10:49:50.081Z,4.63
2018-12-04T10:52:17.625Z,4.10
2018-12-04T10:54:45.197Z,1.83
2018-12-04T10:57:12.746Z,6.60
2018-12-04T10:59:40.343Z,2.30
2018-12-04T11:02:13.548Z,3.30
2018-12-04T11:04:41.093Z,2.23
2018-12-04T11:07:08.661Z,3.20
2018-12-04T11:09:36.221Z,4.60
2018-12-04T11:12:03.784Z,3.17
2018-12-04T11:14:31.329Z,2.60
2018-12-04T11:16:58.900Z,3.20
2018-12-04T11:19:26.453Z,2.70
2018-12-04T11:21:54.024Z,3.57
2018-12-04T11:24:21.573Z,1.90
2018-12-04T11:26:49.148Z,2.00
2018-12-04T11:29:16.701Z,2.40
2018-12-04T11:31:44.320Z,2.00
2018-12-04T11:34:11.893Z,5.37
2018-12-04T11:36:39.443Z,3.70
2018-12-04T11:39:07.013Z,2.53
2018-12-04T11:41:34.566Z,3.20
2018-12-04T11:44:02.214Z,2.27
2018-12-04T11:46:29.765Z,2.20
2018-12-04T11:48:57.357Z,5.17
2018-12-04T11:51:24.924Z,4.00
2018-12-04T11:53:53.492Z,5.20
2018-12-04T11:56:21.045Z,6.77
2018-12-04T11:58:48.617Z,2.77
2018-12-04T12:01:18.130Z,2.87
2018-12-04T12:03:45.684Z,3.17
2018-12-04T12:06:13.261Z,5.83
2018-12-04T12:08:40.804Z,2.90
2018-12-04T12:11:08.376Z,2.40
2018-12-04T12:13:35.928Z,6.53
2018-12-04T12:16:03.497Z,2.53
2018-12-04T12:18:31.041Z,3.20
2018-12-04T12:20:58.613Z,2.63
2018-12-04T12:23:26.159Z,3.70
2018-12-04T12:25:53.725Z,3.17
2018-12-04T12:28:21.276Z,4.07
2018-12-04T12:30:48.824Z,3.17
2018-12-04T12:33:16.389Z,5.93
2018-12-04T12:35:43.937Z,3.67
2018-12-04T12:38:11.508Z,3.67
2018-12-04T12:40:39.058Z,3.63
2018-12-04T12:43:06.630Z,1.63
2018-12-04T12:45:34.177Z,4.37
2018-12-04T12:48:01.748Z,1.90
2018-12-04T12:50:29.305Z,2.30
2018-12-04T12:52:56.872Z,1.70
2018-12-04T12:55:24.417Z,4.10
2018-12-04T12:57:51.967Z,2.03
2018-12-04T13:00:19.612Z,1.90
2018-12-04T13:02:47.185Z,4.60
2018-12-04T13:05:14.887Z,3.33
2018-12-04T13:07:42.448Z,2.50
2018-12-04T13:10:10.102Z,2.70
2018-12-04T13:12:37.659Z,3.40
2018-12-04T13:15:05.738Z,3.37
2018-12-04T13:17:33.329Z,4.10
2018-12-04T13:20:00.881Z,3.90
2018-12-04T13:22:28.452Z,2.90
2018-12-04T13:24:56.072Z,6.37
2018-12-04T13:27:23.639Z,4.93
2018-12-04T13:29:51.188Z,5.97
2018-12-04T13:32:18.761Z,4.07
2018-12-04T13:34:46.352Z,3.87
2018-12-04T13:37:13.916Z,3.40
2018-12-04T13:39:41.479Z,3.20
2018-12-04T13:42:09.066Z,5.50
2018-12-04T13:44:36.617Z,3.60
2018-12-04T13:47:04.166Z,4.47
2018-12-04T13:49:31.739Z,4.40
2018-12-04T13:51:59.293Z,4.80
2018-12-04T13:54:26.883Z,8.87
2018-12-04T13:56:54.434Z,6.50
2018-12-04T13:59:22.059Z,10.50
2018-12-04T14:01:49.662Z,5.53
2018-12-04T14:04:17.376Z,6.37
2018-12-04T14:06:45.017Z,4.40
2018-12-04T14:09:12.704Z,3.63
2018-12-04T14:11:40.282Z,5.80
2018-12-04T14:14:07.958Z,13.20
2018-12-04T14:16:35.629Z,5.17
2018-12-04T14:19:03.211Z,5.90
2018-12-04T14:21:30.885Z,6.00
2018-12-04T14:23:58.557Z,4.60
2018-12-04T14:26:26.277Z,5.43
2018-12-04T14:28:53.934Z,4.30
2018-12-04T14:31:21.520Z,9.67
2018-12-04T14:33:49.176Z,4.30
2018-12-04T14:36:16.717Z,4.17
2018-12-04T14:38:44.422Z,6.10
2018-12-04T14:41:11.973Z,5.63
2018-12-04T14:43:39.547Z,6.67
2018-12-04T14:46:07.097Z,5.90
2018-12-04T14:48:35.139Z,5.77
2018-12-04T14:51:03.101Z,5.27
2018-12-04T14:53:30.782Z,5.50
2018-12-04T14:55:58.460Z,3.70
2018-12-04T14:58:26.054Z,3.87
2018-12-04T15:00:53.643Z,3.50
2018-12-04T15:03:21.422Z,3.70
2018-12-04T15:05:49.414Z,5.57
2018-12-04T15:08:17.111Z,4.20
2018-12-04T15:10:44.853Z,4.00
2018-12-04T15:13:12.552Z,3.80
2018-12-04T15:15:40.139Z,6.67
2018-12-04T15:18:08.253Z,3.27
2018-12-04T15:20:35.911Z,3.73
2018-12-04T15:23:03.945Z,3.47
2018-12-04T15:25:32.205Z,4.47
2018-12-04T15:28:00.117Z,5.37
2018-12-04T15:30:27.880Z,4.40
2018-12-04T15:32:56.060Z,4.30
2018-12-04T15:35:24.009Z,5.10
2018-12-04T15:37:52.216Z,3.70
2018-12-04T15:40:19.886Z,3.90
2018-12-04T15:42:47.704Z,3.70
2018-12-04T15:45:15.403Z,4.67
2018-12-04T15:47:43.044Z,3.70
2018-12-04T15:50:10.675Z,10.70
2018-12-04T15:52:38.653Z,8.13
2018-12-04T15:55:06.339Z,4.43
2018-12-04T15:57:34.103Z,7.13
2018-12-04T16:00:02.161Z,8.03
2018-12-04T16:02:31.630Z,4.93
2018-12-04T16:05:00.113Z,5.37
2018-12-04T16:07:27.661Z,4.47
2018-12-04T16:09:55.250Z,6.53
2018-12-04T16:12:23.161Z,5.07
2018-12-04T16:14:50.932Z,4.10
2018-12-04T16:17:18.509Z,5.13
2018-12-04T16:19:46.267Z,4.13
2018-12-04T16:22:13.887Z,3.87
2018-12-04T16:27:39.673Z,3.60
2018-12-04T16:30:07.495Z,6.77
2018-12-04T16:32:35.377Z,5.60
2018-12-04T16:35:03.246Z,5.90
2018-12-04T16:37:30.817Z,4.10
2018-12-04T16:39:58.370Z,4.40
2018-12-04T16:42:26.272Z,5.57
2018-12-04T16:44:54.188Z,5.50
2018-12-04T16:47:21.778Z,4.80
2018-12-04T16:49:49.676Z,7.30
2018-12-04T16:52:17.248Z,9.00
2018-12-04T16:54:44.801Z,6.47
2018-12-04T16:57:12.605Z,5.33
2018-12-04T16:59:40.569Z,6.37
2018-12-04T17:02:08.128Z,7.97
2018-12-04T17:04:35.705Z,4.67
2018-12-04T17:07:03.319Z,5.37
2018-12-04T17:09:30.888Z,6.93
2018-12-04T17:11:58.442Z,5.70
2018-12-04T17:14:26.087Z,11.93
2018-12-04T17:16:53.654Z,8.97
2018-12-04T17:19:21.306Z,8.17
2018-12-04T17:21:48.861Z,4.37
2018-12-04T17:24:16.429Z,5.00
2018-12-04T17:26:43.980Z,6.50
2018-12-04T17:29:11.561Z,6.50
2018-12-04T17:31:39.117Z,8.90
2018-12-04T17:34:06.767Z,6.23
2018-12-04T17:36:34.357Z,7.37
2018-12-04T17:39:01.929Z,7.47
2018-12-04T17:41:29.481Z,10.50
2018-12-04T17:43:57.054Z,7.20
2018-12-04T17:46:24.604Z,9.17
2018-12-04T17:48:52.151Z,8.30
2018-12-04T17:51:19.717Z,6.53
2018-12-04T17:53:47.351Z,9.27
2018-12-04T17:56:14.961Z,11.13
2018-12-04T17:58:42.513Z,6.30
2018-12-04T18:01:10.086Z,8.13
2018-12-04T18:03:37.633Z,7.37
2018-12-04T18:06:05.196Z,6.00
2018-12-04T18:08:32.775Z,7.70
2018-12-04T18:11:00.450Z,6.20
2018-12-04T18:13:27.988Z,7.47
2018-12-04T18:15:55.589Z,5.43
2018-12-04T18:18:23.167Z,8.73
2018-12-04T18:20:50.736Z,23.50
2018-12-04T18:23:18.309Z,15.33
2018-12-04T18:25:45.869Z,13.47
2018-12-04T18:28:13.696Z,10.23
2018-12-04T18:30:41.257Z,11.53
2018-12-04T18:33:08.824Z,11.03
2018-12-04T18:35:36.493Z,8.90
2018-12-04T18:38:04.064Z,12.97
2018-12-04T18:40:31.621Z,11.23
2018-12-04T18:42:59.200Z,12.60
2018-12-04T18:45:26.769Z,11.40
2018-12-04T18:47:54.365Z,10.50
2018-12-04T18:50:21.909Z,9.87
2018-12-04T18:52:49.469Z,11.70
2018-12-04T18:55:19.085Z,11.73
2018-12-04T18:57:46.813Z,15.60
2018-12-04T19:00:14.386Z,11.00
2018-12-04T19:02:41.932Z,15.20
2018-12-04T19:05:09.502Z,11.13
2018-12-04T19:07:37.089Z,13.80
2018-12-04T19:10:04.858Z,13.40
2018-12-04T19:12:32.437Z,9.33
2018-12-04T19:15:00.017Z,9.00
2018-12-04T19:17:27.577Z,11.47
2018-12-04T19:19:55.166Z,11.40
2018-12-04T19:22:22.725Z,19.03
2018-12-04T19:24:50.321Z,10.80
2018-12-04T19:27:17.879Z,13.13
2018-12-04T19:29:45.473Z,12.20
2018-12-04T19:32:13.055Z,15.63
2018-12-04T19:34:40.613Z,15.00
2018-12-04T19:37:08.187Z,19.57
2018-12-04T19:39:35.938Z,15.30
2018-12-04T19:42:03.809Z,11.60
2018-12-04T19:44:31.361Z,14.70
2018-12-04T19:46:58.929Z,11.67
2018-12-04T19:49:26.721Z,11.77
2018-12-04T19:51:55.494Z,11.10
2018-12-04T19:54:23.281Z,12.73
2018-12-04T19:56:50.845Z,10.53
2018-12-04T19:59:18.390Z,11.30
2018-12-04T20:01:46.203Z,14.60
2018-12-04T20:04:13.774Z,9.70
2018-12-04T20:06:41.342Z,13.53
2018-12-04T20:09:08.989Z,12.77
2018-12-04T20:11:36.636Z,12.03
2018-12-04T20:14:04.225Z,14.60
2018-12-04T20:16:31.797Z,10.97
2018-12-04T20:18:59.440Z,13.90
2018-12-04T20:21:27.099Z,12.57
2018-12-04T20:23:54.759Z,11.03
2018-12-04T20:26:22.379Z,13.93
2018-12-04T20:28:49.995Z,10.20
2018-12-04T20:31:17.581Z,14.53
2018-12-04T20:33:45.406Z,10.73
2018-12-04T20:36:13.027Z,13.83
2018-12-04T20:38:41.035Z,11.83
2018-12-04T20:41:08.841Z,14.57
2018-12-04T20:43:36.625Z,15.23
2018-12-04T20:46:06.090Z,14.20
2018-12-04T20:48:34.085Z,12.67
2018-12-04T20:51:01.770Z,11.47
2018-12-04T20:53:29.418Z,13.70
2018-12-04T20:55:57.230Z,14.43
2018-12-04T20:58:25.019Z,14.17
2018-12-04T21:00:52.828Z,12.60
2018-12-04T21:03:21.454Z,10.90
2018-12-04T21:05:49.266Z,12.17
2018-12-04T21:08:16.830Z,17.53
2018-12-04T21:10:44.408Z,14.40
2018-12-04T21:13:14.608Z,15.93
2018-12-04T21:15:41.591Z,19.03
2018-12-04T21:18:09.149Z,11.20
2018-12-04T21:20:36.725Z,11.00
2018-12-04T21:23:04.277Z,15.83
2018-12-04T21:25:32.567Z,11.70
2018-12-04T21:28:05.929Z,11.90
2018-12-04T21:30:39.193Z,12.17
2018-12-04T21:33:12.513Z,11.03
2018-12-04T21:35:45.827Z,14.43
2018-12-04T21:38:19.164Z,21.10
2018-12-04T21:40:52.728Z,15.43
2018-12-04T21:43:31.669Z,13.80
2018-12-04T21:46:06.036Z,16.63
2018-12-04T21:48:35.389Z,10.50
2018-12-04T21:51:03.091Z,13.27
2018-12-04T21:53:30.745Z,11.70
2018-12-04T21:55:58.458Z,10.83
2018-12-04T21:58:26.393Z,11.57
2018-12-04T22:00:53.950Z,16.07
2018-12-04T22:03:21.536Z,17.43
2018-12-04T22:05:49.092Z,15.30
2018-12-04T22:08:16.665Z,11.67
2018-12-04T22:10:44.225Z,14.90
2018-12-04T22:13:11.801Z,12.00
2018-12-04T22:15:39.369Z,10.60
2018-12-04T22:18:06.943Z,12.20
2018-12-04T22:20:34.872Z,12.13
2018-12-04T22:23:03.465Z,9.10
2018-12-04T22:25:31.382Z,17.43
2018-12-04T22:27:59.275Z,11.77
2018-12-04T22:30:26.926Z,9.20
2018-12-04T22:32:55.919Z,13.47
2018-12-04T22:35:23.480Z,12.57
2018-12-04T22:37:51.053Z,8.97
2018-12-04T22:40:18.833Z,18.60
2018-12-04T22:42:46.404Z,14.23
2018-12-04T22:45:21.911Z,15.87
2018-12-04T22:47:49.470Z,13.80
2018-12-04T22:50:17.259Z,13.63
2018-12-04T22:52:44.820Z,13.50
2018-12-04T22:55:12.392Z,12.87
2018-12-04T22:57:39.981Z,19.50
2018-12-04T23:00:28.600Z,8.77
2018-12-04T23:02:56.645Z,14.17
2018-12-04T23:05:25.127Z,13.23
2018-12-04T23:07:53.095Z,14.17
2018-12-04T23:10:21.285Z,14.37
2018-12-04T23:12:48.836Z,14.40
2018-12-04T23:15:16.405Z,11.47
2018-12-04T23:17:44.460Z,13.07
2018-12-04T23:20:12.785Z,12.33
2018-12-04T23:22:40.330Z,9.20
2018-12-04T23:25:07.915Z,10.17
2018-12-04T23:27:36.339Z,12.60
2018-12-04T23:30:05.333Z,11.43
2018-12-04T23:32:32.886Z,10.10
2018-12-04T23:35:00.893Z,12.13
2018-12-04T23:37:28.448Z,15.60
2018-12-04T23:39:56.187Z,14.63
2018-12-04T23:42:23.749Z,11.60
2018-12-04T23:44:51.335Z,11.63
2018-12-04T23:47:19.583Z,17.33
2018-12-04T23:49:47.369Z,10.93
2018-12-04T23:52:15.053Z,14.33
2018-12-04T23:54:42.980Z,13.93
2018-12-04T23:57:11.266Z,16.90
2018-12-04T23:59:38.919Z,11.73
